KPZQ METAR Reports


Rogers City, Presque Isle County Airport, MI, United States (KPZQ) 45-24-25N 083-48-46W
Dec 07, 2019 - 11:55 PM EST / 2019.12.08 0455 UTC
Wind: from the S (190 degrees) at 13 MPH (11 KT) gusting to 18 MPH (16 KT):0
Visibility: 10 mile(s):0
Sky conditions: overcast
Temperature: 29.3 F (-1.5 C)
Windchill: 19 F (-7 C):1
Dew Point: 23.0 F (-5.0 C)
Relative Humidity: 77%
Pressure (altimeter): 30.09 in. Hg (1018 hPa)
ob: KPZQ 080455Z AUTO 19011G16KT 10SM BKN100 OVC120 M01/M05 A3009 RMK AO2 T10151050
cycle: 5

 

Rogers City METAR Meteogram

Weather Chart

Nearby METAR Reports

KPZQ - Rogers City, Michigan, USA
Distance from station: SSW 1mi, 2km
Updated: Sat, 07-Dec-2019 11:36pm EST
Overcast
Overcast
 Wind from S
Wind: S 13 mph , 20 km/h, Gust: 17 mph , 28 km/h
Temperature: 28°F , -2°C
Wind Chill: 17°F , -8°C
Dew Point: 23°F , -5°C
Humidity: 80%
Barometer: 30.10 inHg , 1019.3 hPa
Clouds: Overcast
Visibility: 10 miles , 16 km
Cloud details: Overcast 11000 ft
2019/12/08 04:36 KPZQ 080436Z AUTO 18011G15KT 10SM OVC110 M02/M05 A3010 RMK AO2 T10161050
KAPN - Alpena, Michigan, USA
Distance from station: SSE 27mi, 43km
Updated: Sat, 07-Dec-2019 11:54pm EST
Overcast
Overcast
 Wind from S
Wind: S 9 mph , 15 km/h
Temperature: 28°F , -2°C
Wind Chill: 19°F , -7°C
Dew Point: 21°F , -6°C
Humidity: 74%
Barometer: 30.13 inHg , 1020.3 hPa
Clouds: Overcast
Visibility: 10 miles , 16 km
Cloud details: Overcast 11000 ft
2019/12/08 04:54 KAPN 080454Z AUTO 18008KT 10SM OVC110 M02/M06 A3013 RMK AO2 SLP213 T10221056 410061106 $
 
KSLH - Cheboygan, Michigan, USA
Distance from station: WNW 38mi, 61km
Updated: Sat, 07-Dec-2019 11:55pm EST
Overcast
Overcast
 Wind from S
Wind: S 8 mph , 13 km/h
Temperature: 32°F , 0°C
Wind Chill: 25°F , -4°C
Dew Point: 25°F , -4°C
Humidity: 75%
Barometer: 30.02 inHg , 1016.6 hPa
Clouds: Overcast
Visibility: 10 miles , 16 km
Cloud details: Mostly cloudy 6000 ft
Overcast 7500 ft
2019/12/08 04:55 KSLH 080455Z AUTO 18007KT 10SM BKN060 OVC075 00/M04 A3002 RMK AO2 T10021044
KDRM - Drummond Is, Michigan, USA
Distance from station: N 40mi, 65km
Updated: Sat, 07-Dec-2019 11:55pm EST
Overcast
Overcast
 Wind from S
Wind: S 12 mph , 19 km/h, Gust: 16 mph , 26 km/h
Temperature: 36°F , 2°C
Wind Chill: 28°F , -2°C
Dew Point: 28°F , -2°C
Humidity: 75%
Barometer: 30.06 inHg , 1017.9 hPa
Clouds: Overcast
Visibility: 10 miles , 16 km
Cloud details: Overcast 5500 ft
2019/12/08 04:55 KDRM 080455Z AUTO 18010G14KT 10SM OVC055 02/M02 A3006 RMK AO2 T00161020
 
KPLN - Pellston, Michigan, USA
Distance from station: WNW 49mi, 79km
Updated: Sat, 07-Dec-2019 11:54pm EST
Overcast
Overcast
 Wind from S
Wind: S 13 mph , 20 km/h
Temperature: 34°F , 1°C
Wind Chill: 25°F , -4°C
Dew Point: 21°F , -6°C
Humidity: 60%
Barometer: 30.03 inHg , 1016.9 hPa
Clouds: Overcast
Visibility: 10 miles , 16 km
Cloud details: Partly cloudy 6000 ft
Mostly cloudy 8000 ft
Overcast 9000 ft
2019/12/08 04:54 KPLN 080454Z AUTO 18011KT 10SM SCT060 BKN080 OVC090 01/M06 A3003 RMK AO2 SLP179 T00061056 400171072
KMCD - Mackinac Island, Michigan, USA
Distance from station: NW 50mi, 80km
Updated: Sat, 07-Dec-2019 11:56pm EST
Overcast
Overcast
 Wind from S
Wind: S 8 mph , 13 km/h, Gust: 17 mph , 28 km/h
Temperature: 34°F , 1°C
Wind Chill: 27°F , -3°C
Dew Point: 25°F , -4°C
Humidity: 70%
Barometer: 30.02 inHg , 1016.6 hPa
Clouds: Overcast
Visibility: 10 miles , 16 km
Cloud details: Overcast 6500 ft
2019/12/08 04:56 KMCD 080456Z AUTO 19007G15KT 10SM OVC065 01/M04 A3002 RMK AO2 T00121037